createdAt,value
2022-10-17T00:01:47.278Z,100738.97
2022-10-17T00:04:15.331Z,100740.84
2022-10-17T00:06:44.366Z,100749.06
2022-10-17T00:09:16.098Z,100741.06
2022-10-17T00:11:44.143Z,100749.25
2022-10-17T00:14:15.172Z,100749.25
2022-10-17T00:16:49.402Z,100749.47
2022-10-17T00:19:20.146Z,100747.56
2022-10-17T00:21:50.703Z,100753.16
2022-10-17T00:24:18.711Z,100749.59
2022-10-17T00:26:46.978Z,100744.81
2022-10-17T00:29:17.674Z,100746.69
2022-10-17T00:31:50.344Z,100755.00
2022-10-17T00:34:18.922Z,100759.53
2022-10-17T00:36:46.835Z,100759.19
2022-10-17T00:39:15.281Z,100758.38
2022-10-17T00:41:43.574Z,100760.19
2022-10-17T00:44:47.560Z,100753.94
2022-10-17T00:47:20.630Z,100769.16
2022-10-17T00:49:49.603Z,100767.69
2022-10-17T00:52:21.447Z,100765.00
2022-10-17T00:54:53.244Z,100760.81
2022-10-17T00:57:21.597Z,100768.75
2022-10-17T00:59:54.822Z,100767.13
2022-10-17T01:02:24.926Z,100766.06
2022-10-17T01:04:55.769Z,100770.50
2022-10-17T01:07:24.355Z,100773.91
2022-10-17T01:09:52.735Z,100768.75
2022-10-17T01:12:25.755Z,100768.75
2022-10-17T01:15:12.254Z,100776.88
2022-10-17T01:17:56.444Z,100773.56
2022-10-17T01:20:49.231Z,100773.91
2022-10-17T01:23:30.331Z,100773.16
2022-10-17T01:26:08.075Z,100764.31
2022-10-17T01:29:07.534Z,100765.31
2022-10-17T01:31:46.427Z,100771.53
2022-10-17T01:34:19.427Z,100768.19
2022-10-17T01:36:52.482Z,100769.22
2022-10-17T01:39:30.023Z,100775.53
2022-10-17T01:42:03.457Z,100765.94
2022-10-17T01:44:40.744Z,100766.63
2022-10-17T01:47:14.682Z,100760.94
2022-10-17T01:49:46.308Z,100762.69
2022-10-17T01:52:19.856Z,100765.50
2022-10-17T01:54:55.307Z,100758.50
2022-10-17T01:57:29.742Z,100760.41
2022-10-17T01:59:58.707Z,100758.84
2022-10-17T02:02:30.653Z,100764.28
2022-10-17T02:05:04.083Z,100768.63
2022-10-17T02:07:32.993Z,100767.66
2022-10-17T02:10:01.143Z,100763.38
2022-10-17T02:12:46.945Z,100767.91
2022-10-17T02:15:34.631Z,100771.44
2022-10-17T02:18:16.873Z,100762.66
2022-10-17T02:20:53.865Z,100762.72
2022-10-17T02:23:29.064Z,100758.47
2022-10-17T02:28:48.312Z,100757.94
2022-10-17T02:31:19.024Z,100759.16
2022-10-17T02:33:51.484Z,100760.94
2022-10-17T02:36:23.604Z,100769.63
2022-10-17T02:38:55.491Z,100762.50
2022-10-17T02:41:25.437Z,100764.28
2022-10-17T02:43:57.707Z,100774.31
2022-10-17T02:46:29.670Z,100770.94
2022-10-17T02:49:02.866Z,100766.50
2022-10-17T02:51:34.286Z,100767.47
2022-10-17T02:54:10.475Z,100774.78
2022-10-17T02:56:44.625Z,100778.44
2022-10-17T02:59:18.705Z,100778.56
2022-10-17T03:01:47.037Z,100776.81
2022-10-17T03:04:16.506Z,100774.28
2022-10-17T03:06:47.217Z,100779.91
2022-10-17T03:09:19.636Z,100773.81
2022-10-17T03:11:49.668Z,100775.66
2022-10-17T03:14:19.436Z,100784.59
2022-10-17T03:16:48.101Z,100794.44
2022-10-17T03:19:18.575Z,100785.66
2022-10-17T03:21:46.957Z,100792.88
2022-10-17T03:24:15.222Z,100790.41
2022-10-17T03:26:43.581Z,100792.28
2022-10-17T03:29:12.082Z,100789.47
2022-10-17T03:31:41.923Z,100793.03
2022-10-17T03:34:11.307Z,100796.66
2022-10-17T03:36:39.562Z,100797.78
2022-10-17T03:39:07.583Z,100798.94
2022-10-17T03:41:36.418Z,100796.41
2022-10-17T03:44:04.737Z,100801.66
2022-10-17T03:46:33.114Z,100803.69
2022-10-17T03:49:05.713Z,100804.44
2022-10-17T03:51:34.673Z,100809.06
2022-10-17T03:54:07.059Z,100811.75
2022-10-17T03:56:35.528Z,100817.38
2022-10-17T03:59:08.076Z,100811.28
2022-10-17T04:01:38.511Z,100814.28
2022-10-17T04:04:07.985Z,100823.38
2022-10-17T04:06:39.595Z,100827.06
2022-10-17T04:09:08.648Z,100833.34
2022-10-17T04:11:47.601Z,100835.09
2022-10-17T04:14:18.553Z,100830.44
2022-10-17T04:16:48.854Z,100831.34
2022-10-17T04:19:22.706Z,100826.09
2022-10-17T04:21:51.627Z,100821.72
2022-10-17T04:24:23.143Z,100821.69
2022-10-17T04:27:11.849Z,100824.25
2022-10-17T04:29:44.945Z,100824.38
2022-10-17T04:32:19.331Z,100825.28
2022-10-17T04:34:52.769Z,100826.06
2022-10-17T04:37:23.313Z,100827.13
2022-10-17T04:39:53.430Z,100831.66
2022-10-17T04:42:21.799Z,100829.09
2022-10-17T04:44:52.635Z,100820.44
2022-10-17T04:47:20.537Z,100826.69
2022-10-17T04:49:48.866Z,100825.88
2022-10-17T04:52:19.166Z,100821.44
2022-10-17T04:54:50.339Z,100826.94
2022-10-17T04:57:19.843Z,100820.84
2022-10-17T05:02:57.843Z,100831.41
2022-10-17T05:05:27.204Z,100832.19
2022-10-17T05:07:59.486Z,100836.56
2022-10-17T05:10:31.640Z,100843.66
2022-10-17T05:13:00.346Z,100848.63
2022-10-17T05:15:32.458Z,100842.97
2022-10-17T05:18:03.282Z,100852.00
2022-10-17T05:20:34.775Z,100852.72
2022-10-17T05:23:04.294Z,100845.66
2022-10-17T05:25:37.579Z,100834.78
2022-10-17T05:28:06.003Z,100844.63
2022-10-17T05:30:37.481Z,100849.09
2022-10-17T05:33:08.037Z,100851.81
2022-10-17T05:35:37.291Z,100857.13
2022-10-17T05:38:08.128Z,100853.53
2022-10-17T05:40:38.661Z,100855.47
2022-10-17T05:43:06.824Z,100858.28
2022-10-17T05:45:35.343Z,100859.31
2022-10-17T05:48:03.738Z,100864.50
2022-10-17T05:50:32.592Z,100860.97
2022-10-17T05:53:05.540Z,100861.84
2022-10-17T05:55:40.899Z,100868.13
2022-10-17T05:58:11.769Z,100858.28
2022-10-17T06:00:51.729Z,100853.78
2022-10-17T06:03:22.333Z,100867.97
2022-10-17T06:05:52.010Z,100862.56
2022-10-17T06:08:20.526Z,100866.09
2022-10-17T06:10:50.948Z,100873.13
2022-10-17T06:13:19.447Z,100879.31
2022-10-17T06:15:53.783Z,100873.97
2022-10-17T06:18:21.720Z,100879.19
2022-10-17T06:20:50.047Z,100880.88
2022-10-17T06:23:21.452Z,100885.88
2022-10-17T06:26:01.185Z,100882.16
2022-10-17T06:28:31.193Z,100880.06
2022-10-17T06:30:59.417Z,100888.88
2022-10-17T06:33:28.469Z,100900.91
2022-10-17T06:35:59.123Z,100901.53
2022-10-17T06:38:27.849Z,100903.94
2022-10-17T06:41:08.214Z,100910.59
2022-10-17T06:43:39.315Z,100913.88
2022-10-17T06:46:29.706Z,100920.84
2022-10-17T06:49:04.858Z,100919.41
2022-10-17T06:51:50.078Z,100919.00
2022-10-17T06:54:21.181Z,100930.81
2022-10-17T06:57:00.631Z,100931.00
2022-10-17T06:59:41.355Z,100930.41
2022-10-17T07:02:17.810Z,100935.03
2022-10-17T07:04:47.590Z,100937.59
2022-10-17T07:07:15.722Z,100931.28
2022-10-17T07:09:43.987Z,100930.88
2022-10-17T07:12:13.418Z,100936.16
2022-10-17T07:14:47.477Z,100929.69
2022-10-17T07:17:15.581Z,100942.59
2022-10-17T07:19:44.677Z,100936.44
2022-10-17T07:22:13.890Z,100939.16
2022-10-17T07:24:45.855Z,100927.81
2022-10-17T07:29:39.125Z,100948.66
2022-10-17T07:32:10.807Z,100953.44
2022-10-17T07:34:41.096Z,100962.09
2022-10-17T07:37:11.799Z,100966.53
2022-10-17T07:39:42.678Z,100967.25
2022-10-17T07:42:12.049Z,100975.59
2022-10-17T07:44:41.476Z,100975.91
2022-10-17T07:47:11.024Z,100970.88
2022-10-17T07:49:43.996Z,100973.84
2022-10-17T07:52:13.196Z,100972.06
2022-10-17T07:54:41.656Z,100984.97
2022-10-17T07:57:10.593Z,100985.81
2022-10-17T07:59:42.541Z,100977.19
2022-10-17T08:02:19.509Z,100973.47
2022-10-17T08:04:47.391Z,100977.66
2022-10-17T08:07:22.133Z,100980.03
2022-10-17T08:09:53.702Z,100973.97
2022-10-17T08:12:22.210Z,100979.00
2022-10-17T08:14:51.479Z,100979.56
2022-10-17T08:17:19.805Z,100979.75
2022-10-17T08:19:47.744Z,100983.41
2022-10-17T08:22:15.780Z,100984.84
2022-10-17T08:24:44.541Z,100993.13
2022-10-17T08:27:13.657Z,100992.75
2022-10-17T08:29:42.031Z,100989.75
2022-10-17T08:32:11.454Z,100985.56
2022-10-17T08:34:39.381Z,100982.34
2022-10-17T08:39:42.654Z,101000.88
2022-10-17T08:42:28.012Z,100997.63
2022-10-17T08:45:05.063Z,100989.50
2022-10-17T08:47:41.036Z,100987.00
2022-10-17T08:50:15.480Z,100985.44
2022-10-17T08:52:49.176Z,100982.75
2022-10-17T08:57:54.904Z,100984.00
2022-10-17T09:00:23.536Z,100990.81
2022-10-17T09:03:06.697Z,100971.59
2022-10-17T09:05:42.090Z,100979.44
2022-10-17T09:08:28.439Z,100991.25
2022-10-17T09:11:01.440Z,100989.72
2022-10-17T09:13:45.013Z,100991.34
2022-10-17T09:16:37.374Z,100985.13
2022-10-17T09:19:16.604Z,101000.81
2022-10-17T09:21:48.463Z,101000.53
2022-10-17T09:24:22.450Z,101002.16
2022-10-17T09:26:55.058Z,101004.94
2022-10-17T09:29:31.161Z,101015.59
2022-10-17T09:32:14.765Z,101013.66
2022-10-17T09:34:44.658Z,101008.25
2022-10-17T09:37:17.123Z,101002.56
2022-10-17T09:39:45.793Z,101009.78
2022-10-17T09:42:18.796Z,101011.13
2022-10-17T09:44:52.037Z,101008.69
2022-10-17T09:47:31.176Z,101016.75
2022-10-17T09:50:04.268Z,101013.47
2022-10-17T09:52:37.839Z,101020.06
2022-10-17T09:55:18.910Z,101023.66
2022-10-17T09:57:55.204Z,101028.16
2022-10-17T10:00:26.100Z,101032.56
2022-10-17T10:03:10.231Z,101037.78
2022-10-17T10:05:39.842Z,101033.97
2022-10-17T10:08:15.205Z,101030.84
2022-10-17T10:10:44.265Z,101027.38
2022-10-17T10:13:21.061Z,101030.16
2022-10-17T10:15:50.524Z,101027.28
2022-10-17T10:18:37.033Z,101028.28
2022-10-17T10:21:10.577Z,101030.78
2022-10-17T10:23:42.389Z,101038.81
2022-10-17T10:26:26.677Z,101041.97
2022-10-17T10:29:00.884Z,101029.78
2022-10-17T10:31:37.537Z,101028.28
2022-10-17T10:34:18.562Z,101026.72
2022-10-17T10:37:02.014Z,101020.34
2022-10-17T10:39:46.816Z,101044.25
2022-10-17T10:42:25.770Z,101041.72
2022-10-17T10:44:57.090Z,101039.41
2022-10-17T10:47:29.628Z,101038.38
2022-10-17T10:50:27.786Z,101048.66
2022-10-17T10:53:14.403Z,101040.97
2022-10-17T10:55:49.637Z,101047.41
2022-10-17T10:58:36.812Z,101047.88
2022-10-17T11:01:18.597Z,101049.16
2022-10-17T11:03:58.371Z,101051.91
2022-10-17T11:06:29.754Z,101051.69
2022-10-17T11:09:14.335Z,101043.03
2022-10-17T11:11:48.120Z,101040.13
2022-10-17T11:14:19.847Z,101039.41
2022-10-17T11:16:53.858Z,101046.03
2022-10-17T11:19:26.740Z,101048.06
2022-10-17T11:22:07.137Z,101048.59
2022-10-17T11:24:42.110Z,101055.00
2022-10-17T11:27:10.687Z,101052.69
2022-10-17T11:29:41.203Z,101052.91
2022-10-17T11:32:14.707Z,101055.19
2022-10-17T11:34:47.441Z,101042.75
2022-10-17T11:37:20.497Z,101049.03
2022-10-17T11:39:53.787Z,101044.09
2022-10-17T11:42:28.998Z,101048.81
2022-10-17T11:45:02.964Z,101037.44
2022-10-17T11:47:41.855Z,101050.53
2022-10-17T11:53:15.407Z,101059.69
2022-10-17T11:55:46.708Z,101059.03
2022-10-17T11:58:33.987Z,101060.53
2022-10-17T12:01:14.368Z,101061.78
2022-10-17T12:04:13.609Z,101055.41
2022-10-17T12:06:54.072Z,101053.78
2022-10-17T12:09:33.372Z,101053.56
2022-10-17T12:12:05.819Z,101055.19
2022-10-17T12:14:40.753Z,101050.91
2022-10-17T12:17:34.876Z,101054.53
2022-10-17T12:20:27.267Z,101043.84
2022-10-17T12:22:56.921Z,101034.78
2022-10-17T12:25:29.836Z,101032.19
2022-10-17T12:30:51.084Z,101043.31
2022-10-17T12:33:23.004Z,101051.88
2022-10-17T12:35:52.401Z,101041.13
2022-10-17T12:38:28.629Z,101041.38
2022-10-17T12:41:03.702Z,101039.19
2022-10-17T12:43:52.834Z,101041.16
2022-10-17T12:46:58.449Z,101038.09
2022-10-17T12:49:44.241Z,101030.13
2022-10-17T12:52:41.896Z,101028.97
2022-10-17T12:55:14.954Z,101029.13
2022-10-17T12:57:51.054Z,101018.56
2022-10-17T13:00:23.722Z,101023.94
2022-10-17T13:02:57.573Z,101031.00
2022-10-17T13:05:29.444Z,101028.28
2022-10-17T13:08:00.267Z,101023.03
2022-10-17T13:10:31.664Z,101027.19
2022-10-17T13:13:11.908Z,101033.59
2022-10-17T13:15:47.814Z,101028.56
2022-10-17T13:18:24.309Z,101034.03
2022-10-17T13:21:01.324Z,101038.34
2022-10-17T13:23:32.683Z,101034.13
2022-10-17T13:26:08.727Z,101037.94
2022-10-17T13:28:45.915Z,101041.81
2022-10-17T13:31:30.865Z,101046.63
2022-10-17T13:34:04.897Z,101044.91
2022-10-17T13:36:36.276Z,101055.31
2022-10-17T13:39:12.260Z,101055.44
2022-10-17T13:41:42.837Z,101054.81
2022-10-17T13:44:15.096Z,101058.19
2022-10-17T13:46:44.763Z,101061.16
2022-10-17T13:49:23.251Z,101057.16
2022-10-17T13:51:55.870Z,101051.19
2022-10-17T13:54:35.847Z,101065.44
2022-10-17T13:57:05.488Z,101065.94
2022-10-17T13:59:38.528Z,101059.75
2022-10-17T14:02:12.577Z,101056.91
2022-10-17T14:05:11.520Z,101063.09
2022-10-17T14:07:58.166Z,101058.13
2022-10-17T14:10:27.084Z,101055.25
2022-10-17T14:12:56.361Z,101063.91
2022-10-17T14:15:30.656Z,101060.91
2022-10-17T14:18:07.921Z,101054.50
2022-10-17T14:21:28.668Z,101067.72
2022-10-17T14:23:37.596Z,101060.38
2022-10-17T14:26:11.559Z,101064.38
2022-10-17T14:28:43.966Z,101069.91
2022-10-17T14:31:24.920Z,101067.41
2022-10-17T14:33:56.045Z,101070.44
2022-10-17T14:36:41.961Z,101074.75
2022-10-17T14:39:20.754Z,101072.59
2022-10-17T14:41:49.372Z,101079.59
2022-10-17T14:44:22.569Z,101087.69
2022-10-17T14:46:55.358Z,101080.84
2022-10-17T14:49:29.421Z,101095.31
2022-10-17T14:52:26.977Z,101092.47
2022-10-17T14:54:55.619Z,101093.16
2022-10-17T14:57:29.977Z,101089.13
2022-10-17T14:59:59.321Z,101097.47
2022-10-17T15:02:31.305Z,101097.97
2022-10-17T15:04:59.610Z,101104.03
2022-10-17T15:07:29.460Z,101108.56
2022-10-17T15:09:57.484Z,101108.22
2022-10-17T15:12:28.544Z,101109.53
2022-10-17T15:14:57.234Z,101105.28
2022-10-17T15:17:27.007Z,101115.59
2022-10-17T15:19:55.940Z,101112.78
2022-10-17T15:22:24.571Z,101105.78
2022-10-17T15:24:56.319Z,101108.25
2022-10-17T15:27:26.483Z,101107.75
2022-10-17T15:29:54.605Z,101112.63
2022-10-17T15:32:23.013Z,101102.56
2022-10-17T15:34:54.023Z,101108.34
2022-10-17T15:37:24.350Z,101112.63
2022-10-17T15:39:56.345Z,101102.03
2022-10-17T15:42:28.758Z,101101.44
2022-10-17T15:44:57.671Z,101103.44
2022-10-17T15:47:28.368Z,101108.25
2022-10-17T15:49:56.981Z,101112.94
2022-10-17T15:52:26.011Z,101111.19
2022-10-17T15:54:54.420Z,101116.88
2022-10-17T15:57:26.716Z,101111.75
2022-10-17T15:59:56.523Z,101118.16
2022-10-17T16:02:25.166Z,101112.88
2022-10-17T16:04:53.918Z,101124.56
2022-10-17T16:07:22.529Z,101117.38
2022-10-17T16:09:50.511Z,101125.66
2022-10-17T16:12:29.195Z,101119.50
2022-10-17T16:15:01.962Z,101120.41
2022-10-17T16:17:32.340Z,101126.75
2022-10-17T16:20:00.585Z,101126.44
2022-10-17T16:22:33.369Z,101132.53
2022-10-17T16:25:09.270Z,101129.66
2022-10-17T16:27:40.474Z,101130.44
2022-10-17T16:30:10.420Z,101132.84
2022-10-17T16:32:38.711Z,101140.75
2022-10-17T16:35:07.940Z,101136.97
2022-10-17T16:37:35.953Z,101136.84
2022-10-17T16:40:04.552Z,101142.00
2022-10-17T16:42:34.947Z,101137.31
2022-10-17T16:45:05.938Z,101142.66
2022-10-17T16:47:35.385Z,101144.19
2022-10-17T16:50:03.717Z,101142.78
2022-10-17T16:52:33.229Z,101153.09
2022-10-17T16:55:01.726Z,101158.06
2022-10-17T16:57:29.701Z,101150.38
2022-10-17T16:59:58.136Z,101154.59
2022-10-17T17:02:27.354Z,101162.41
2022-10-17T17:04:56.985Z,101156.72
2022-10-17T17:07:25.178Z,101159.47
2022-10-17T17:09:53.710Z,101158.59
2022-10-17T17:12:24.307Z,101169.06
2022-10-17T17:14:52.473Z,101179.50
2022-10-17T17:17:30.615Z,101181.66
2022-10-17T17:20:11.137Z,101185.31
2022-10-17T17:22:39.304Z,101179.28
2022-10-17T17:25:07.723Z,101180.56
2022-10-17T17:27:38.046Z,101179.94
2022-10-17T17:31:39.435Z,101168.91
2022-10-17T17:34:07.661Z,101164.63
2022-10-17T17:36:38.098Z,101170.19
2022-10-17T17:39:08.588Z,101171.16
2022-10-17T17:41:39.453Z,101172.09
2022-10-17T17:44:11.209Z,101177.56
2022-10-17T17:46:43.751Z,101178.44
2022-10-17T17:49:12.621Z,101191.31
2022-10-17T17:51:41.479Z,101189.69
2022-10-17T17:54:12.704Z,101189.06
2022-10-17T17:56:40.893Z,101199.19
2022-10-17T17:59:08.911Z,101194.84
2022-10-17T18:01:38.903Z,101198.47
2022-10-17T18:04:09.935Z,101208.47
2022-10-17T18:06:39.276Z,101208.63
2022-10-17T18:09:10.661Z,101206.91
2022-10-17T18:11:39.674Z,101205.06
2022-10-17T18:14:11.612Z,101199.66
2022-10-17T18:16:39.892Z,101209.41
2022-10-17T18:19:11.839Z,101207.38
2022-10-17T18:21:40.127Z,101207.34
2022-10-17T18:24:08.622Z,101208.22
2022-10-17T18:26:37.211Z,101208.25
2022-10-17T18:29:05.700Z,101211.91
2022-10-17T18:31:36.187Z,101215.44
2022-10-17T18:34:05.478Z,101213.47
2022-10-17T18:36:37.133Z,101211.69
2022-10-17T18:39:07.498Z,101202.84
2022-10-17T18:41:35.735Z,101210.94
2022-10-17T18:44:07.073Z,101215.44
2022-10-17T18:46:40.771Z,101215.44
2022-10-17T18:49:09.933Z,101215.66
2022-10-17T18:51:39.868Z,101218.56
2022-10-17T18:54:14.552Z,101216.09
2022-10-17T18:56:42.913Z,101218.00
2022-10-17T18:59:11.127Z,101215.50
2022-10-17T19:01:39.446Z,101223.75
2022-10-17T19:04:07.478Z,101215.91
2022-10-17T19:06:36.163Z,101211.53
2022-10-17T19:09:07.525Z,101213.50
2022-10-17T19:11:37.130Z,101220.94
2022-10-17T19:14:12.621Z,101221.09
2022-10-17T19:16:43.578Z,101212.34
2022-10-17T19:19:14.120Z,101214.31
2022-10-17T19:21:43.031Z,101212.59
2022-10-17T19:24:16.873Z,101204.66
2022-10-17T19:26:47.044Z,101208.44
2022-10-17T19:29:18.614Z,101213.09
2022-10-17T19:31:49.474Z,101216.81
2022-10-17T19:34:18.850Z,101209.81
2022-10-17T19:36:47.726Z,101211.78
2022-10-17T19:39:19.094Z,101211.94
2022-10-17T19:41:49.059Z,101212.06
2022-10-17T19:44:19.547Z,101204.84
2022-10-17T19:46:49.254Z,101213.00
2022-10-17T19:49:18.000Z,101204.91
2022-10-17T19:51:46.390Z,101207.59
2022-10-17T19:54:20.226Z,101204.06
2022-10-17T19:56:48.593Z,101196.03
2022-10-17T19:59:17.785Z,101194.13
2022-10-17T20:01:46.198Z,101195.09
2022-10-17T20:04:14.671Z,101196.91
2022-10-17T20:06:42.692Z,101196.13
2022-10-17T20:09:16.522Z,101200.63
2022-10-17T20:11:47.265Z,101207.84
2022-10-17T20:14:15.197Z,101207.84
2022-10-17T20:16:44.878Z,101206.97
2022-10-17T20:19:14.045Z,101197.19
2022-10-17T20:21:44.849Z,101206.25
2022-10-17T20:24:15.750Z,101197.34
2022-10-17T20:26:44.739Z,101197.44
2022-10-17T20:29:16.991Z,101195.66
2022-10-17T20:31:46.861Z,101206.53
2022-10-17T20:34:17.425Z,101203.09
2022-10-17T20:36:45.502Z,101208.34
2022-10-17T20:39:14.836Z,101207.47
2022-10-17T20:41:46.018Z,101208.47
2022-10-17T20:44:15.364Z,101214.09
2022-10-17T20:47:00.744Z,101208.91
2022-10-17T20:49:32.428Z,101206.44
2022-10-17T20:52:01.277Z,101207.53
2022-10-17T20:54:29.484Z,101207.59
2022-10-17T20:56:59.926Z,101204.19
2022-10-17T20:59:32.275Z,101206.94
2022-10-17T21:02:00.386Z,101207.97
2022-10-17T21:04:46.680Z,101209.19
2022-10-17T21:07:15.812Z,101211.28
2022-10-17T21:09:43.795Z,101213.28
2022-10-17T21:12:13.182Z,101215.31
2022-10-17T21:14:50.100Z,101225.34
2022-10-17T21:17:18.385Z,101228.16
2022-10-17T21:19:46.191Z,101237.31
2022-10-17T21:22:18.675Z,101225.81
2022-10-17T21:24:49.539Z,101225.19
2022-10-17T21:27:19.631Z,101218.25
2022-10-17T21:29:49.810Z,101220.44
2022-10-17T21:32:31.969Z,101219.78
2022-10-17T21:35:07.058Z,101218.28
2022-10-17T21:37:35.193Z,101216.72
2022-10-17T21:40:06.195Z,101222.16
2022-10-17T21:42:36.746Z,101222.28
2022-10-17T21:45:15.340Z,101220.78
2022-10-17T21:48:11.168Z,101217.22
2022-10-17T21:50:36.382Z,101212.91
2022-10-17T21:53:04.729Z,101222.88
2022-10-17T21:55:37.495Z,101224.75
2022-10-17T21:58:10.381Z,101216.00
2022-10-17T22:00:39.803Z,101221.31
2022-10-17T22:03:09.489Z,101221.13
2022-10-17T22:05:37.345Z,101229.19
2022-10-17T22:08:06.071Z,101227.38
2022-10-17T22:10:36.584Z,101229.19
2022-10-17T22:13:05.057Z,101223.81
2022-10-17T22:15:33.154Z,101218.44
2022-10-17T22:18:03.062Z,101224.53
2022-10-17T22:20:30.949Z,101222.69
2022-10-17T22:22:59.027Z,101215.34
2022-10-17T22:25:29.398Z,101214.50
2022-10-17T22:27:57.448Z,101218.09
2022-10-17T22:32:40.267Z,101208.47
2022-10-17T22:35:09.548Z,101212.84
2022-10-17T22:37:37.741Z,101211.97
2022-10-17T22:40:06.964Z,101204.84
2022-10-17T22:42:34.959Z,101205.69
2022-10-17T22:45:03.508Z,101209.41
2022-10-17T22:47:33.954Z,101208.34
2022-10-17T22:50:03.349Z,101203.91
2022-10-17T22:52:33.972Z,101203.00
2022-10-17T22:55:01.976Z,101203.91
2022-10-17T22:57:29.899Z,101202.28
2022-10-17T22:59:58.220Z,101202.22
2022-10-17T23:02:26.416Z,101211.25
2022-10-17T23:04:54.607Z,101200.63
2022-10-17T23:07:26.309Z,101205.31
2022-10-17T23:09:54.727Z,101212.50
2022-10-17T23:12:25.845Z,101208.91
2022-10-17T23:14:53.811Z,101209.88
2022-10-17T23:17:22.106Z,101202.66
2022-10-17T23:19:52.911Z,101198.28
2022-10-17T23:22:23.599Z,101207.91
2022-10-17T23:24:53.391Z,101206.00
2022-10-17T23:27:21.452Z,101204.91
2022-10-17T23:29:49.797Z,101207.34
2022-10-17T23:32:20.358Z,101206.25
2022-10-17T23:34:48.735Z,101188.19
2022-10-17T23:37:16.774Z,101190.69
2022-10-17T23:39:45.320Z,101191.38
2022-10-17T23:42:14.732Z,101191.25
2022-10-17T23:44:42.921Z,101183.06
2022-10-17T23:47:10.863Z,101180.19
2022-10-17T23:49:39.110Z,101181.03
2022-10-17T23:52:07.582Z,101175.56
2022-10-17T23:54:35.631Z,101175.53
2022-10-17T23:57:03.778Z,101173.72
2022-10-17T23:59:35.894Z,101181.72
